Impacts METAR Board INFO
IDs:

KDTW - Detroit Metro/Wayne, MI, US

Updated at: 0234 UTC 12 Dec 2017
Potential Impact None Slight Moderate High
Time11/14Z 11/15Z 11/16Z 11/17Z 11/18Z 11/19Z 11/20Z 11/21Z 11/22Z 11/23Z 12/00Z 12/01Z 12/02Z
VIS10 1.5 0.75 1.25 7 7 8 8 1.5 0.5 1 1.75 1
CIG35 20 15 18 25 15 15 25 60 13 25 25 25
CoverOVCOVCOVCOVCOVCOVCOVCOVCOVCOVXOVCOVCOVC
FltCatVFRIFRLIFRIFRMVFRMVFRMVFRMVFRIFRLIFRIFRIFRIFR
WX---SN-SN BR-SN BR---------SNSN FZFG-SN BR-SN BR-SN BR
WDir18015016018018017016016015014015000
WSpd3 5 5 6 7 6 7 8 6 5 4 0 0
WGst-- -- -- -- -- -- -- -- -- -- -- -- --
Raw hourly METARs
KDTW 111353Z 18003KT 10SM SCT020 OVC035 M03/M08 A3004 RMK AO2 SLP180 T10331078
KDTW 111505Z 15005KT 1 1/2SM R03R/5500VP6000FT -SN BKN020 OVC035 M03/M07 A3000 RMK AO2 P0000 T10331072
KDTW 111553Z 16005KT 3/4SM R03R/3500V4500FT -SN BR OVC015 M03/M05 A3000 RMK AO2 TWR VIS 1 1/2 SLP167 P0002 T10331050
KDTW 111653Z 18006KT 1 1/4SM R03R/5000VP6000FT -SN BR FEW010 OVC018 M02/M04 A2996 RMK AO2 TWR VIS 1 1/2 SLP154 P0003 T10221039
KDTW 111753Z 18007KT 7SM SCT010 BKN025 OVC055 M02/M04 A2992 RMK AO2 SNE44 SLP140 P0001 60006 T10171044 11017 21039 58029
KDTW 111853Z 17006KT 7SM BKN015 OVC050 M02/M04 A2988 RMK AO2 SLP125 T10171039
KDTW 111953Z 16007KT 8SM BKN015 OVC050 M01/M04 A2985 RMK AO2 SLP115 T10111039
KDTW 112053Z 16008KT 8SM SCT013 OVC025 M01/M04 A2983 RMK AO2 SLP108 T10111039 56031
KDTW 112202Z 15006KT 1 1/2SM -SN SCT025 OVC060 M01/M04 A2980 RMK AO2 TWR VIS 4 P0000 T10061039 $
KDTW 112258Z 14005KT 1/2SM R03R/P6000FT SN FZFG VV013 M01/M02 A2977 RMK AO2 TWR VIS 1 P0000 T10111022 $
KDTW 112356Z 15004KT 1SM R03R/P6000FT -SN BR OVC025 M01/M02 A2975 RMK AO2 SFC VIS 1 1/4 P0000 T10061022 $
KDTW 120053Z 00000KT 1 3/4SM -SN BR OVC025 M01/M02 A2975 RMK AO2 TWR VIS 3 SLP081 P0001 T10061022 $
KDTW 120153Z 00000KT 1SM R03R/P6000FT -SN BR OVC025 M01/M02 A2973 RMK AO2 TWR VIS 2 SLP074 P0001 T10061017 $